Main page
METAR-TAF:

METAR-TAF

Airports :

Wellington International Airport

Wellington, New Zealand

latitude: 41-20S, longitude: 174-48E, elevation: 12 m

Current weather observation

The report was made 52 minutes ago, at 16:30 UTC
Wind 3 kt from the North/Northeast
Temperature 6°C
Humidity 87%
Pressure 1023 hPa
Visibility 10 km or more

METAR: NZWN 211630Z AUTO 03003KT 9999 NCD 06/04 Q1023

Time: 05:22 (17:22 UTC)

Forecast

The report was made 2 hours and 38 minutes ago, at 14:44 UTC
Forecast valid from 21 at 15 UTC to 22 at 18 UTC
Wind 10 kt from the North/Northeast
Visibility 10 km or more
no clouds below 1500 m and no cumulonimbus
Temporary
from 22 at 15 UTC to 22 at 18 UTC
Visibility: 7000 m
rain,

TAF: NZWN 211444Z 2115/2218 03010KT CAVOK TEMPO 2215/2218 7000 RA

Weather observations and forecasts of more than 4000 airports (METAR and TAF reports).

The available stations are represented by yellow and red dots on the map.

Hover mouse over dot to see the name of the station.

Then click to see weather observations and forecasts.

To change the map : click on the green buttons with a black cross to zoom in, on the green button with a dash to zoom out, or on the green arrows for adjacent maps.


METAR-TAF: